Terminal Aerodrome Forecast
Issued by NWS Sioux Falls, SD

Home | Current Version | Previous Version | Text Only | Print | Product List | Glossary On
Versions: 1 2 3 4 5 6 7 8 9 10 11 12 13 14 15 16 17 18
000
FTUS43 KFSD 161134
TAFSUX
TAF
KSUX 161134Z 1612/1712 12007KT 2SM TSRA OVC030CB
      TEMPO 1612/1614 1SM +TSRA SCT005 OVC025CB
     FM161400 13008KT 5SM SHRA VCTS OVC045CB
     FM161700 18008KT P6SM VCTS OVC080CB
     FM162000 25007KT P6SM VCSH BKN080
     FM162200 30008KT P6SM BKN090
     FM170800 31010KT P6SM BKN025=

USA.gov is the U.S. government's official web portal to all federal, state and local government web resources and services.